Terminal Aerodrome Forecast
Issued by NWS Jacksonville, FL

Home | Current Version | Previous Version | Text Only | Print | Product List | Glossary On
Versions: 1 2 3 4 5 6 7 8 9 10 11 12 13 14 15 16 17 18
897
FTUS42 KJAX 021120
TAFSSI
TAF
KSSI 021120Z 0212/0312 17005KT P6SM FEW015 SCT150 BKN250
     FM021300 19007KT P6SM SCT030 BKN200
     FM021700 15008KT P6SM VCSH SCT035 BKN200
     FM022200 16010KT P6SM VCTS SCT035CB SCT100 BKN200
     FM030100 17010KT P6SM SCT040 BKN100=

USA.gov is the U.S. government's official web portal to all federal, state and local government web resources and services.